KCTY/CTY METAR and TAF weather

Enter ICAO airport designator
Station Type Date Time Source
KCTY METAR 2019/08/24 20:35 UTC NOAA

KCTY 242035Z AUTO 10004KT 10SM SCT050 35/23 A2992 RMK AO2 T03460228


Station Type Date Time Source
KCTY Decoded METAR 2019/08/24 20:35 UTC NOAA

Station name not available
Aug 24, 2019 - 04:35 PM EDT / 2019.08.24 2035 UTC
Wind: from the E (100 degrees) at 5 MPH (4 KT):0
Visibility: 10 mile(s):0
Sky conditions: partly cloudy
Temperature: 94.3 F (34.6 C)
Heat index: 103.6 F (39.8 C):1
Dew Point: 73.0 F (22.8 C)
Relative Humidity: 50%
Pressure (altimeter): 29.92 in. Hg (1013 hPa)
ob: KCTY 242035Z AUTO 10004KT 10SM SCT050 35/23 A2992 RMK AO2 T03460228
cycle: 20

Station Type Date Time Source
KCTY TAF UTC NOAA

Error!

Example: see airport list